sensor_id;sensor_type;location;lat;lon;timestamp;P1;durP1;ratioP1;P2;durP2;ratioP2
12286;SDS011;6206;53.100;11.098;2022-08-19T00:01:17;10.73;;;8.02;;
12286;SDS011;6206;53.100;11.098;2022-08-19T00:03:46;12.82;;;8.75;;
12286;SDS011;6206;53.100;11.098;2022-08-19T00:06:12;12.23;;;8.50;;
12286;SDS011;6206;53.100;11.098;2022-08-19T00:08:39;10.68;;;8.90;;
12286;SDS011;6206;53.100;11.098;2022-08-19T00:11:06;12.18;;;8.43;;
12286;SDS011;6206;53.100;11.098;2022-08-19T00:13:33;11.40;;;8.40;;
12286;SDS011;6206;53.100;11.098;2022-08-19T00:16:00;12.57;;;8.25;;
12286;SDS011;6206;53.100;11.098;2022-08-19T00:18:28;10.63;;;7.65;;
12286;SDS011;6206;53.100;11.098;2022-08-19T00:20:56;11.97;;;8.63;;
12286;SDS011;6206;53.100;11.098;2022-08-19T00:23:22;12.85;;;9.02;;
12286;SDS011;6206;53.100;11.098;2022-08-19T00:25:49;10.88;;;8.85;;
12286;SDS011;6206;53.100;11.098;2022-08-19T00:28:17;12.88;;;8.23;;
12286;SDS011;6206;53.100;11.098;2022-08-19T00:30:43;9.98;;;7.93;;
12286;SDS011;6206;53.100;11.098;2022-08-19T00:33:10;12.15;;;8.70;;
12286;SDS011;6206;53.100;11.098;2022-08-19T00:35:38;11.00;;;8.17;;
12286;SDS011;6206;53.100;11.098;2022-08-19T00:38:06;13.38;;;8.25;;
12286;SDS011;6206;53.100;11.098;2022-08-19T00:40:33;12.07;;;8.27;;
12286;SDS011;6206;53.100;11.098;2022-08-19T00:42:59;11.23;;;8.23;;
12286;SDS011;6206;53.100;11.098;2022-08-19T00:45:27;11.38;;;8.48;;
12286;SDS011;6206;53.100;11.098;2022-08-19T00:47:56;9.95;;;7.85;;
12286;SDS011;6206;53.100;11.098;2022-08-19T00:50:23;12.97;;;8.80;;
12286;SDS011;6206;53.100;11.098;2022-08-19T00:52:50;11.88;;;8.40;;
12286;SDS011;6206;53.100;11.098;2022-08-19T00:55:20;11.73;;;8.80;;
12286;SDS011;6206;53.100;11.098;2022-08-19T00:57:51;11.52;;;8.10;;
12286;SDS011;6206;53.100;11.098;2022-08-19T01:00:21;11.65;;;8.23;;
12286;SDS011;6206;53.100;11.098;2022-08-19T01:02:49;10.85;;;8.70;;
12286;SDS011;6206;53.100;11.098;2022-08-19T01:05:16;12.82;;;8.73;;
12286;SDS011;6206;53.100;11.098;2022-08-19T01:07:46;11.50;;;8.10;;
12286;SDS011;6206;53.100;11.098;2022-08-19T01:10:15;11.93;;;8.25;;
12286;SDS011;6206;53.100;11.098;2022-08-19T01:12:45;12.85;;;8.43;;
12286;SDS011;6206;53.100;11.098;2022-08-19T01:15:14;11.70;;;8.50;;
12286;SDS011;6206;53.100;11.098;2022-08-19T01:17:42;12.63;;;7.83;;
12286;SDS011;6206;53.100;11.098;2022-08-19T01:20:10;10.35;;;8.18;;
12286;SDS011;6206;53.100;11.098;2022-08-19T01:22:41;12.38;;;7.78;;
12286;SDS011;6206;53.100;11.098;2022-08-19T01:25:11;10.00;;;7.35;;
12286;SDS011;6206;53.100;11.098;2022-08-19T01:27:39;10.93;;;7.93;;
12286;SDS011;6206;53.100;11.098;2022-08-19T01:30:07;13.82;;;8.90;;
12286;SDS011;6206;53.100;11.098;2022-08-19T01:32:34;11.38;;;8.35;;
12286;SDS011;6206;53.100;11.098;2022-08-19T01:35:02;11.60;;;8.43;;
12286;SDS011;6206;53.100;11.098;2022-08-19T01:37:30;11.93;;;8.43;;
12286;SDS011;6206;53.100;11.098;2022-08-19T01:40:09;12.73;;;8.35;;
12286;SDS011;6206;53.100;11.098;2022-08-19T01:42:37;12.37;;;8.43;;
12286;SDS011;6206;53.100;11.098;2022-08-19T01:45:04;12.35;;;9.27;;
12286;SDS011;6206;53.100;11.098;2022-08-19T01:47:33;12.07;;;8.73;;
12286;SDS011;6206;53.100;11.098;2022-08-19T01:50:00;11.45;;;8.45;;
12286;SDS011;6206;53.100;11.098;2022-08-19T01:52:27;12.25;;;9.00;;
12286;SDS011;6206;53.100;11.098;2022-08-19T01:54:55;12.65;;;8.43;;
12286;SDS011;6206;53.100;11.098;2022-08-19T01:57:22;11.67;;;8.40;;
12286;SDS011;6206;53.100;11.098;2022-08-19T01:59:48;10.57;;;8.20;;
12286;SDS011;6206;53.100;11.098;2022-08-19T02:02:16;12.30;;;8.45;;
12286;SDS011;6206;53.100;11.098;2022-08-19T02:04:43;11.45;;;9.00;;
12286;SDS011;6206;53.100;11.098;2022-08-19T02:07:10;13.23;;;8.88;;
12286;SDS011;6206;53.100;11.098;2022-08-19T02:09:37;14.65;;;8.82;;
12286;SDS011;6206;53.100;11.098;2022-08-19T02:12:06;13.10;;;9.13;;
12286;SDS011;6206;53.100;11.098;2022-08-19T02:14:33;12.90;;;9.07;;
12286;SDS011;6206;53.100;11.098;2022-08-19T02:17:01;11.93;;;8.57;;
12286;SDS011;6206;53.100;11.098;2022-08-19T02:19:28;14.13;;;9.00;;
12286;SDS011;6206;53.100;11.098;2022-08-19T02:21:58;14.90;;;8.70;;
12286;SDS011;6206;53.100;11.098;2022-08-19T02:24:26;13.18;;;9.18;;
12286;SDS011;6206;53.100;11.098;2022-08-19T02:26:53;11.68;;;8.57;;
12286;SDS011;6206;53.100;11.098;2022-08-19T02:29:21;15.40;;;9.38;;
12286;SDS011;6206;53.100;11.098;2022-08-19T02:31:48;12.97;;;9.30;;
12286;SDS011;6206;53.100;11.098;2022-08-19T02:34:15;14.50;;;9.02;;
12286;SDS011;6206;53.100;11.098;2022-08-19T02:36:42;15.65;;;9.32;;
12286;SDS011;6206;53.100;11.098;2022-08-19T02:39:09;13.48;;;9.18;;
12286;SDS011;6206;53.100;11.098;2022-08-19T02:41:35;13.27;;;9.32;;
12286;SDS011;6206;53.100;11.098;2022-08-19T02:44:02;13.13;;;9.07;;
12286;SDS011;6206;53.100;11.098;2022-08-19T02:46:31;14.70;;;9.10;;
12286;SDS011;6206;53.100;11.098;2022-08-19T02:49:02;13.97;;;9.30;;
12286;SDS011;6206;53.100;11.098;2022-08-19T02:51:31;14.90;;;9.77;;
12286;SDS011;6206;53.100;11.098;2022-08-19T02:54:04;13.15;;;9.30;;
12286;SDS011;6206;53.100;11.098;2022-08-19T02:56:33;12.90;;;9.43;;
12286;SDS011;6206;53.100;11.098;2022-08-19T02:59:01;13.93;;;9.33;;
12286;SDS011;6206;53.100;11.098;2022-08-19T03:01:34;13.52;;;10.10;;
12286;SDS011;6206;53.100;11.098;2022-08-19T03:04:03;14.93;;;10.00;;
12286;SDS011;6206;53.100;11.098;2022-08-19T03:06:31;14.40;;;9.37;;
12286;SDS011;6206;53.100;11.098;2022-08-19T03:09:01;14.73;;;9.65;;
12286;SDS011;6206;53.100;11.098;2022-08-19T03:11:29;13.82;;;9.73;;
12286;SDS011;6206;53.100;11.098;2022-08-19T03:13:57;15.60;;;9.60;;
12286;SDS011;6206;53.100;11.098;2022-08-19T03:16:25;15.50;;;10.15;;
12286;SDS011;6206;53.100;11.098;2022-08-19T03:18:56;13.32;;;9.82;;
12286;SDS011;6206;53.100;11.098;2022-08-19T03:21:25;15.48;;;10.18;;
12286;SDS011;6206;53.100;11.098;2022-08-19T03:23:53;16.02;;;10.63;;
12286;SDS011;6206;53.100;11.098;2022-08-19T03:26:20;14.52;;;10.30;;
12286;SDS011;6206;53.100;11.098;2022-08-19T03:28:47;14.90;;;10.50;;
12286;SDS011;6206;53.100;11.098;2022-08-19T03:31:15;16.33;;;10.40;;
12286;SDS011;6206;53.100;11.098;2022-08-19T03:33:43;16.20;;;10.52;;
12286;SDS011;6206;53.100;11.098;2022-08-19T03:36:13;14.60;;;10.00;;
12286;SDS011;6206;53.100;11.098;2022-08-19T03:38:42;15.13;;;9.85;;
12286;SDS011;6206;53.100;11.098;2022-08-19T03:41:11;16.30;;;10.20;;
12286;SDS011;6206;53.100;11.098;2022-08-19T03:43:40;15.48;;;10.95;;
12286;SDS011;6206;53.100;11.098;2022-08-19T03:46:08;16.93;;;11.00;;
12286;SDS011;6206;53.100;11.098;2022-08-19T03:48:38;16.88;;;11.68;;
12286;SDS011;6206;53.100;11.098;2022-08-19T03:51:06;17.52;;;11.93;;
12286;SDS011;6206;53.100;11.098;2022-08-19T03:53:35;19.23;;;11.83;;
12286;SDS011;6206;53.100;11.098;2022-08-19T03:56:02;18.38;;;11.95;;
12286;SDS011;6206;53.100;11.098;2022-08-19T04:08:16;20.13;;;12.82;;
12286;SDS011;6206;53.100;11.098;2022-08-19T04:10:46;21.38;;;13.70;;
12286;SDS011;6206;53.100;11.098;2022-08-19T04:13:14;22.13;;;14.00;;
12286;SDS011;6206;53.100;11.098;2022-08-19T04:15:42;19.02;;;12.77;;
12286;SDS011;6206;53.100;11.098;2022-08-19T04:18:11;19.45;;;12.82;;
12286;SDS011;6206;53.100;11.098;2022-08-19T04:20:39;19.27;;;12.68;;
12286;SDS011;6206;53.100;11.098;2022-08-19T04:23:09;17.90;;;12.60;;
12286;SDS011;6206;53.100;11.098;2022-08-19T04:25:37;18.17;;;12.97;;
12286;SDS011;6206;53.100;11.098;2022-08-19T04:28:07;18.73;;;13.07;;
12286;SDS011;6206;53.100;11.098;2022-08-19T04:30:39;19.57;;;12.90;;
12286;SDS011;6206;53.100;11.098;2022-08-19T04:33:06;19.70;;;13.35;;
12286;SDS011;6206;53.100;11.098;2022-08-19T04:35:34;18.02;;;12.82;;
12286;SDS011;6206;53.100;11.098;2022-08-19T04:38:03;18.08;;;13.23;;
12286;SDS011;6206;53.100;11.098;2022-08-19T04:40:30;20.20;;;13.07;;
12286;SDS011;6206;53.100;11.098;2022-08-19T04:43:16;21.13;;;13.30;;
12286;SDS011;6206;53.100;11.098;2022-08-19T04:45:42;20.30;;;13.13;;
12286;SDS011;6206;53.100;11.098;2022-08-19T04:48:09;19.40;;;13.20;;
12286;SDS011;6206;53.100;11.098;2022-08-19T04:50:39;18.67;;;13.30;;
12286;SDS011;6206;53.100;11.098;2022-08-19T04:53:07;18.20;;;13.50;;
12286;SDS011;6206;53.100;11.098;2022-08-19T04:55:34;20.95;;;13.57;;
12286;SDS011;6206;53.100;11.098;2022-08-19T04:58:04;18.48;;;13.60;;
12286;SDS011;6206;53.100;11.098;2022-08-19T05:00:32;18.88;;;13.68;;
12286;SDS011;6206;53.100;11.098;2022-08-19T05:02:59;18.37;;;13.63;;
12286;SDS011;6206;53.100;11.098;2022-08-19T05:05:27;19.05;;;14.25;;
12286;SDS011;6206;53.100;11.098;2022-08-19T05:07:53;20.27;;;13.88;;
12286;SDS011;6206;53.100;11.098;2022-08-19T05:10:20;20.50;;;14.07;;
12286;SDS011;6206;53.100;11.098;2022-08-19T05:12:47;20.83;;;14.02;;
12286;SDS011;6206;53.100;11.098;2022-08-19T05:15:14;20.42;;;13.80;;
12286;SDS011;6206;53.100;11.098;2022-08-19T05:17:42;21.20;;;14.50;;
12286;SDS011;6206;53.100;11.098;2022-08-19T05:20:29;24.02;;;14.85;;
12286;SDS011;6206;53.100;11.098;2022-08-19T05:23:13;22.08;;;14.85;;
12286;SDS011;6206;53.100;11.098;2022-08-19T05:25:40;21.95;;;14.15;;
12286;SDS011;6206;53.100;11.098;2022-08-19T05:28:07;21.55;;;14.05;;
12286;SDS011;6206;53.100;11.098;2022-08-19T05:30:34;21.08;;;15.02;;
12286;SDS011;6206;53.100;11.098;2022-08-19T05:33:02;23.30;;;15.32;;
12286;SDS011;6206;53.100;11.098;2022-08-19T05:35:29;24.88;;;16.27;;
12286;SDS011;6206;53.100;11.098;2022-08-19T05:37:56;22.92;;;15.55;;
12286;SDS011;6206;53.100;11.098;2022-08-19T05:40:23;25.90;;;16.50;;
12286;SDS011;6206;53.100;11.098;2022-08-19T05:42:50;26.75;;;16.17;;
12286;SDS011;6206;53.100;11.098;2022-08-19T05:45:18;25.80;;;16.65;;
12286;SDS011;6206;53.100;11.098;2022-08-19T05:47:46;24.52;;;16.83;;
12286;SDS011;6206;53.100;11.098;2022-08-19T05:50:14;26.67;;;17.57;;
12286;SDS011;6206;53.100;11.098;2022-08-19T05:52:42;24.48;;;16.00;;
12286;SDS011;6206;53.100;11.098;2022-08-19T05:55:10;27.83;;;16.27;;
12286;SDS011;6206;53.100;11.098;2022-08-19T05:57:37;28.00;;;17.25;;
12286;SDS011;6206;53.100;11.098;2022-08-19T06:00:04;26.40;;;17.15;;
12286;SDS011;6206;53.100;11.098;2022-08-19T06:02:34;25.77;;;17.30;;
12286;SDS011;6206;53.100;11.098;2022-08-19T06:05:02;27.00;;;16.92;;
12286;SDS011;6206;53.100;11.098;2022-08-19T06:07:32;25.92;;;17.00;;
12286;SDS011;6206;53.100;11.098;2022-08-19T06:09:59;24.63;;;17.30;;
12286;SDS011;6206;53.100;11.098;2022-08-19T06:12:26;29.80;;;17.70;;
12286;SDS011;6206;53.100;11.098;2022-08-19T06:14:59;27.97;;;17.90;;
12286;SDS011;6206;53.100;11.098;2022-08-19T06:17:26;28.55;;;17.55;;
12286;SDS011;6206;53.100;11.098;2022-08-19T06:19:55;26.83;;;17.95;;
12286;SDS011;6206;53.100;11.098;2022-08-19T06:22:22;27.15;;;17.63;;
12286;SDS011;6206;53.100;11.098;2022-08-19T06:24:50;29.27;;;18.65;;
12286;SDS011;6206;53.100;11.098;2022-08-19T06:27:17;29.15;;;18.48;;
12286;SDS011;6206;53.100;11.098;2022-08-19T06:29:44;31.92;;;19.15;;
12286;SDS011;6206;53.100;11.098;2022-08-19T06:32:11;31.08;;;20.42;;
12286;SDS011;6206;53.100;11.098;2022-08-19T06:34:41;29.85;;;19.13;;
12286;SDS011;6206;53.100;11.098;2022-08-19T06:37:08;31.57;;;19.67;;
12286;SDS011;6206;53.100;11.098;2022-08-19T06:39:37;29.83;;;19.45;;
12286;SDS011;6206;53.100;11.098;2022-08-19T06:42:06;32.13;;;19.52;;
12286;SDS011;6206;53.100;11.098;2022-08-19T06:44:36;31.38;;;20.20;;
12286;SDS011;6206;53.100;11.098;2022-08-19T06:47:06;31.98;;;20.05;;
12286;SDS011;6206;53.100;11.098;2022-08-19T06:49:34;31.77;;;19.95;;
12286;SDS011;6206;53.100;11.098;2022-08-19T06:52:02;34.38;;;20.35;;
12286;SDS011;6206;53.100;11.098;2022-08-19T06:54:30;33.42;;;20.58;;
12286;SDS011;6206;53.100;11.098;2022-08-19T06:56:57;34.17;;;20.07;;
12286;SDS011;6206;53.100;11.098;2022-08-19T06:59:28;36.05;;;20.23;;
12286;SDS011;6206;53.100;11.098;2022-08-19T07:01:57;34.35;;;19.67;;
12286;SDS011;6206;53.100;11.098;2022-08-19T07:04:26;34.22;;;20.63;;
12286;SDS011;6206;53.100;11.098;2022-08-19T07:06:57;32.13;;;20.25;;
12286;SDS011;6206;53.100;11.098;2022-08-19T07:09:24;33.03;;;19.98;;
12286;SDS011;6206;53.100;11.098;2022-08-19T07:11:52;32.72;;;20.10;;
12286;SDS011;6206;53.100;11.098;2022-08-19T07:14:20;30.48;;;20.13;;
12286;SDS011;6206;53.100;11.098;2022-08-19T07:16:51;31.25;;;19.92;;
12286;SDS011;6206;53.100;11.098;2022-08-19T07:19:20;30.02;;;19.15;;
12286;SDS011;6206;53.100;11.098;2022-08-19T07:21:50;30.52;;;19.83;;
12286;SDS011;6206;53.100;11.098;2022-08-19T07:24:17;33.17;;;20.85;;
12286;SDS011;6206;53.100;11.098;2022-08-19T07:26:45;29.10;;;19.02;;
12286;SDS011;6206;53.100;11.098;2022-08-19T07:29:12;29.50;;;19.48;;
12286;SDS011;6206;53.100;11.098;2022-08-19T07:31:39;33.60;;;19.27;;
12286;SDS011;6206;53.100;11.098;2022-08-19T07:34:09;27.58;;;18.98;;
12286;SDS011;6206;53.100;11.098;2022-08-19T07:36:40;29.65;;;18.92;;
12286;SDS011;6206;53.100;11.098;2022-08-19T07:39:09;31.20;;;19.27;;
12286;SDS011;6206;53.100;11.098;2022-08-19T07:41:37;29.02;;;18.73;;
12286;SDS011;6206;53.100;11.098;2022-08-19T07:44:04;26.73;;;17.52;;
12286;SDS011;6206;53.100;11.098;2022-08-19T07:46:33;27.38;;;17.67;;
12286;SDS011;6206;53.100;11.098;2022-08-19T07:49:02;30.25;;;18.08;;
12286;SDS011;6206;53.100;11.098;2022-08-19T07:51:31;28.02;;;17.98;;
12286;SDS011;6206;53.100;11.098;2022-08-19T07:53:57;27.30;;;18.48;;
12286;SDS011;6206;53.100;11.098;2022-08-19T07:56:25;28.08;;;18.23;;
12286;SDS011;6206;53.100;11.098;2022-08-19T07:58:52;31.17;;;18.95;;
12286;SDS011;6206;53.100;11.098;2022-08-19T08:01:20;29.37;;;18.07;;
12286;SDS011;6206;53.100;11.098;2022-08-19T08:03:48;30.25;;;18.80;;
12286;SDS011;6206;53.100;11.098;2022-08-19T08:06:34;30.40;;;18.73;;
12286;SDS011;6206;53.100;11.098;2022-08-19T08:09:19;29.42;;;17.90;;
12286;SDS011;6206;53.100;11.098;2022-08-19T08:11:49;28.90;;;18.25;;
12286;SDS011;6206;53.100;11.098;2022-08-19T08:14:21;31.13;;;18.67;;
12286;SDS011;6206;53.100;11.098;2022-08-19T08:16:49;27.95;;;18.48;;
12286;SDS011;6206;53.100;11.098;2022-08-19T08:19:16;30.92;;;18.63;;
12286;SDS011;6206;53.100;11.098;2022-08-19T08:21:45;28.92;;;18.15;;
12286;SDS011;6206;53.100;11.098;2022-08-19T08:24:13;32.10;;;19.73;;
12286;SDS011;6206;53.100;11.098;2022-08-19T08:26:39;29.88;;;18.77;;
12286;SDS011;6206;53.100;11.098;2022-08-19T08:29:07;30.13;;;18.85;;
12286;SDS011;6206;53.100;11.098;2022-08-19T08:31:36;29.98;;;19.48;;
12286;SDS011;6206;53.100;11.098;2022-08-19T08:34:03;30.33;;;18.63;;
12286;SDS011;6206;53.100;11.098;2022-08-19T08:36:30;28.30;;;17.75;;
12286;SDS011;6206;53.100;11.098;2022-08-19T08:38:59;30.77;;;17.70;;
12286;SDS011;6206;53.100;11.098;2022-08-19T08:41:28;31.73;;;18.40;;
12286;SDS011;6206;53.100;11.098;2022-08-19T08:44:00;28.05;;;18.00;;
12286;SDS011;6206;53.100;11.098;2022-08-19T08:46:30;30.23;;;18.00;;
12286;SDS011;6206;53.100;11.098;2022-08-19T08:49:06;30.20;;;17.30;;
12286;SDS011;6206;53.100;11.098;2022-08-19T08:51:40;31.42;;;18.00;;
12286;SDS011;6206;53.100;11.098;2022-08-19T08:54:12;30.43;;;18.03;;
12286;SDS011;6206;53.100;11.098;2022-08-19T08:56:40;29.13;;;18.15;;
12286;SDS011;6206;53.100;11.098;2022-08-19T08:59:10;30.95;;;17.02;;
12286;SDS011;6206;53.100;11.098;2022-08-19T09:01:47;31.08;;;17.30;;
12286;SDS011;6206;53.100;11.098;2022-08-19T09:04:14;31.58;;;17.23;;
12286;SDS011;6206;53.100;11.098;2022-08-19T09:06:44;27.98;;;17.33;;
12286;SDS011;6206;53.100;11.098;2022-08-19T09:09:18;28.15;;;16.38;;
12286;SDS011;6206;53.100;11.098;2022-08-19T09:11:55;29.35;;;16.40;;
12286;SDS011;6206;53.100;11.098;2022-08-19T09:14:32;26.08;;;16.13;;
12286;SDS011;6206;53.100;11.098;2022-08-19T09:17:06;26.43;;;16.13;;
12286;SDS011;6206;53.100;11.098;2022-08-19T09:19:34;23.50;;;15.30;;
12286;SDS011;6206;53.100;11.098;2022-08-19T09:22:01;26.55;;;16.35;;
12286;SDS011;6206;53.100;11.098;2022-08-19T09:24:29;25.13;;;15.20;;
12286;SDS011;6206;53.100;11.098;2022-08-19T09:26:55;24.43;;;14.57;;
12286;SDS011;6206;53.100;11.098;2022-08-19T09:29:22;22.30;;;14.10;;
12286;SDS011;6206;53.100;11.098;2022-08-19T09:31:49;20.63;;;13.63;;
12286;SDS011;6206;53.100;11.098;2022-08-19T09:34:16;21.13;;;13.73;;
12286;SDS011;6206;53.100;11.098;2022-08-19T09:36:44;20.10;;;12.95;;
12286;SDS011;6206;53.100;11.098;2022-08-19T09:39:11;22.35;;;13.63;;
12286;SDS011;6206;53.100;11.098;2022-08-19T09:41:39;18.27;;;12.30;;
12286;SDS011;6206;53.100;11.098;2022-08-19T09:44:06;19.53;;;13.37;;
12286;SDS011;6206;53.100;11.098;2022-08-19T09:46:32;17.70;;;11.95;;
12286;SDS011;6206;53.100;11.098;2022-08-19T09:49:01;19.33;;;12.80;;
12286;SDS011;6206;53.100;11.098;2022-08-19T09:51:31;17.45;;;12.35;;
12286;SDS011;6206;53.100;11.098;2022-08-19T09:53:59;16.80;;;11.93;;
12286;SDS011;6206;53.100;11.098;2022-08-19T09:56:27;17.83;;;12.03;;
12286;SDS011;6206;53.100;11.098;2022-08-19T09:58:58;18.40;;;12.07;;
12286;SDS011;6206;53.100;11.098;2022-08-19T10:01:26;17.67;;;11.85;;
12286;SDS011;6206;53.100;11.098;2022-08-19T10:03:55;18.23;;;11.57;;
12286;SDS011;6206;53.100;11.098;2022-08-19T10:06:23;17.30;;;11.48;;
12286;SDS011;6206;53.100;11.098;2022-08-19T10:08:54;16.92;;;11.98;;
12286;SDS011;6206;53.100;11.098;2022-08-19T10:11:21;18.13;;;11.75;;
12286;SDS011;6206;53.100;11.098;2022-08-19T10:13:48;17.38;;;11.75;;
12286;SDS011;6206;53.100;11.098;2022-08-19T10:16:17;17.23;;;11.07;;
12286;SDS011;6206;53.100;11.098;2022-08-19T10:18:46;16.58;;;10.93;;
12286;SDS011;6206;53.100;11.098;2022-08-19T10:21:15;15.85;;;11.13;;
12286;SDS011;6206;53.100;11.098;2022-08-19T10:23:43;16.27;;;11.50;;
12286;SDS011;6206;53.100;11.098;2022-08-19T10:26:12;16.33;;;10.93;;
12286;SDS011;6206;53.100;11.098;2022-08-19T10:28:41;15.68;;;10.63;;
12286;SDS011;6206;53.100;11.098;2022-08-19T10:31:09;17.85;;;11.18;;
12286;SDS011;6206;53.100;11.098;2022-08-19T10:33:39;18.05;;;11.60;;
12286;SDS011;6206;53.100;11.098;2022-08-19T10:36:07;15.52;;;11.20;;
12286;SDS011;6206;53.100;11.098;2022-08-19T10:38:36;17.58;;;11.90;;
12286;SDS011;6206;53.100;11.098;2022-08-19T10:41:07;16.55;;;10.95;;
12286;SDS011;6206;53.100;11.098;2022-08-19T10:43:35;19.40;;;12.17;;
12286;SDS011;6206;53.100;11.098;2022-08-19T10:46:03;16.70;;;11.27;;
12286;SDS011;6206;53.100;11.098;2022-08-19T10:48:30;17.20;;;11.30;;
12286;SDS011;6206;53.100;11.098;2022-08-19T10:50:59;16.90;;;11.68;;
12286;SDS011;6206;53.100;11.098;2022-08-19T10:53:43;15.82;;;11.60;;
12286;SDS011;6206;53.100;11.098;2022-08-19T10:56:10;24.53;;;16.93;;
12286;SDS011;6206;53.100;11.098;2022-08-19T10:58:54;18.52;;;11.85;;
12286;SDS011;6206;53.100;11.098;2022-08-19T11:01:23;16.73;;;11.57;;
12286;SDS011;6206;53.100;11.098;2022-08-19T11:03:49;17.30;;;11.60;;
12286;SDS011;6206;53.100;11.098;2022-08-19T11:06:18;18.20;;;12.30;;
12286;SDS011;6206;53.100;11.098;2022-08-19T11:08:45;24.70;;;12.65;;
12286;SDS011;6206;53.100;11.098;2022-08-19T11:11:12;19.10;;;13.25;;
12286;SDS011;6206;53.100;11.098;2022-08-19T11:13:39;23.67;;;13.52;;
12286;SDS011;6206;53.100;11.098;2022-08-19T11:16:09;19.70;;;12.77;;
12286;SDS011;6206;53.100;11.098;2022-08-19T11:18:39;21.40;;;13.90;;
12286;SDS011;6206;53.100;11.098;2022-08-19T11:21:09;22.40;;;13.75;;
12286;SDS011;6206;53.100;11.098;2022-08-19T11:23:39;21.25;;;13.50;;
12286;SDS011;6206;53.100;11.098;2022-08-19T11:26:06;22.20;;;13.93;;
12286;SDS011;6206;53.100;11.098;2022-08-19T11:28:33;24.05;;;14.10;;
12286;SDS011;6206;53.100;11.098;2022-08-19T11:30:59;23.90;;;14.32;;
12286;SDS011;6206;53.100;11.098;2022-08-19T11:33:28;22.50;;;14.60;;
12286;SDS011;6206;53.100;11.098;2022-08-19T11:35:56;22.77;;;14.50;;
12286;SDS011;6206;53.100;11.098;2022-08-19T11:38:23;23.90;;;14.25;;
12286;SDS011;6206;53.100;11.098;2022-08-19T11:40:55;24.52;;;14.65;;
12286;SDS011;6206;53.100;11.098;2022-08-19T11:43:22;24.23;;;14.07;;
12286;SDS011;6206;53.100;11.098;2022-08-19T11:45:51;24.55;;;14.38;;
12286;SDS011;6206;53.100;11.098;2022-08-19T11:48:18;22.70;;;13.93;;
12286;SDS011;6206;53.100;11.098;2022-08-19T11:50:47;23.02;;;13.60;;
12286;SDS011;6206;53.100;11.098;2022-08-19T11:53:13;21.58;;;13.15;;
12286;SDS011;6206;53.100;11.098;2022-08-19T11:55:40;24.70;;;13.68;;
12286;SDS011;6206;53.100;11.098;2022-08-19T11:58:09;23.40;;;14.15;;
12286;SDS011;6206;53.100;11.098;2022-08-19T12:00:35;23.33;;;14.20;;
12286;SDS011;6206;53.100;11.098;2022-08-19T12:03:03;21.90;;;11.35;;
12286;SDS011;6206;53.100;11.098;2022-08-19T12:05:30;22.27;;;12.55;;
12286;SDS011;6206;53.100;11.098;2022-08-19T12:07:57;20.52;;;11.95;;
12286;SDS011;6206;53.100;11.098;2022-08-19T12:10:24;25.95;;;13.85;;
12286;SDS011;6206;53.100;11.098;2022-08-19T12:12:50;23.02;;;13.98;;
12286;SDS011;6206;53.100;11.098;2022-08-19T12:15:18;25.90;;;14.90;;
12286;SDS011;6206;53.100;11.098;2022-08-19T12:17:45;26.08;;;13.85;;
12286;SDS011;6206;53.100;11.098;2022-08-19T12:20:12;29.33;;;15.40;;
12286;SDS011;6206;53.100;11.098;2022-08-19T12:22:40;30.67;;;16.42;;
12286;SDS011;6206;53.100;11.098;2022-08-19T12:25:08;29.75;;;15.55;;
12286;SDS011;6206;53.100;11.098;2022-08-19T12:27:36;27.00;;;15.75;;
12286;SDS011;6206;53.100;11.098;2022-08-19T12:30:03;34.58;;;15.52;;
12286;SDS011;6206;53.100;11.098;2022-08-19T12:32:32;34.83;;;15.88;;
12286;SDS011;6206;53.100;11.098;2022-08-19T12:34:59;25.52;;;15.13;;
12286;SDS011;6206;53.100;11.098;2022-08-19T12:37:26;25.75;;;14.40;;
12286;SDS011;6206;53.100;11.098;2022-08-19T12:39:52;23.30;;;12.80;;
12286;SDS011;6206;53.100;11.098;2022-08-19T12:42:19;29.20;;;13.32;;
12286;SDS011;6206;53.100;11.098;2022-08-19T12:44:47;22.27;;;12.02;;
12286;SDS011;6206;53.100;11.098;2022-08-19T12:47:14;21.33;;;11.48;;
12286;SDS011;6206;53.100;11.098;2022-08-19T12:49:43;24.58;;;12.43;;
12286;SDS011;6206;53.100;11.098;2022-08-19T12:52:11;24.40;;;13.95;;
12286;SDS011;6206;53.100;11.098;2022-08-19T12:54:40;27.35;;;16.35;;
12286;SDS011;6206;53.100;11.098;2022-08-19T12:57:08;30.02;;;16.80;;
12286;SDS011;6206;53.100;11.098;2022-08-19T12:59:36;28.67;;;16.77;;
12286;SDS011;6206;53.100;11.098;2022-08-19T13:02:04;27.33;;;15.95;;
12286;SDS011;6206;53.100;11.098;2022-08-19T13:04:32;29.50;;;17.70;;
12286;SDS011;6206;53.100;11.098;2022-08-19T13:07:02;31.38;;;18.05;;
12286;SDS011;6206;53.100;11.098;2022-08-19T13:09:29;31.83;;;18.55;;
12286;SDS011;6206;53.100;11.098;2022-08-19T13:11:56;28.60;;;17.05;;
12286;SDS011;6206;53.100;11.098;2022-08-19T13:14:23;28.77;;;17.13;;
12286;SDS011;6206;53.100;11.098;2022-08-19T13:16:50;29.35;;;17.77;;
12286;SDS011;6206;53.100;11.098;2022-08-19T13:19:16;29.27;;;17.60;;
12286;SDS011;6206;53.100;11.098;2022-08-19T13:21:48;29.45;;;17.92;;
12286;SDS011;6206;53.100;11.098;2022-08-19T13:24:17;30.27;;;18.70;;
12286;SDS011;6206;53.100;11.098;2022-08-19T13:26:44;30.08;;;18.38;;
12286;SDS011;6206;53.100;11.098;2022-08-19T13:29:11;30.80;;;18.00;;
12286;SDS011;6206;53.100;11.098;2022-08-19T13:31:55;30.67;;;18.03;;
12286;SDS011;6206;53.100;11.098;2022-08-19T13:34:39;33.22;;;17.65;;
12286;SDS011;6206;53.100;11.098;2022-08-19T13:37:06;28.85;;;17.30;;
12286;SDS011;6206;53.100;11.098;2022-08-19T13:39:35;26.83;;;16.10;;
12286;SDS011;6206;53.100;11.098;2022-08-19T13:42:02;23.77;;;15.18;;
12286;SDS011;6206;53.100;11.098;2022-08-19T13:44:29;23.15;;;14.32;;
12286;SDS011;6206;53.100;11.098;2022-08-19T13:46:59;21.93;;;13.40;;
12286;SDS011;6206;53.100;11.098;2022-08-19T13:49:30;22.13;;;13.88;;
12286;SDS011;6206;53.100;11.098;2022-08-19T13:51:57;22.52;;;13.20;;
12286;SDS011;6206;53.100;11.098;2022-08-19T13:54:24;22.38;;;13.40;;
12286;SDS011;6206;53.100;11.098;2022-08-19T13:56:53;21.75;;;13.57;;
12286;SDS011;6206;53.100;11.098;2022-08-19T13:59:19;20.13;;;13.13;;
12286;SDS011;6206;53.100;11.098;2022-08-19T14:01:46;19.17;;;12.38;;
12286;SDS011;6206;53.100;11.098;2022-08-19T14:04:13;18.48;;;12.63;;
12286;SDS011;6206;53.100;11.098;2022-08-19T14:06:40;19.73;;;12.65;;
12286;SDS011;6206;53.100;11.098;2022-08-19T14:09:06;19.42;;;12.77;;
12286;SDS011;6206;53.100;11.098;2022-08-19T14:11:33;20.80;;;12.23;;
12286;SDS011;6206;53.100;11.098;2022-08-19T14:14:01;18.45;;;11.98;;
12286;SDS011;6206;53.100;11.098;2022-08-19T14:16:28;21.03;;;12.60;;
12286;SDS011;6206;53.100;11.098;2022-08-19T14:18:55;20.48;;;12.82;;
12286;SDS011;6206;53.100;11.098;2022-08-19T14:21:22;19.70;;;13.47;;
12286;SDS011;6206;53.100;11.098;2022-08-19T14:23:50;24.30;;;15.25;;
12286;SDS011;6206;53.100;11.098;2022-08-19T14:26:17;23.30;;;14.80;;
12286;SDS011;6206;53.100;11.098;2022-08-19T14:28:45;26.80;;;16.10;;
12286;SDS011;6206;53.100;11.098;2022-08-19T14:31:14;25.75;;;15.30;;
12286;SDS011;6206;53.100;11.098;2022-08-19T14:33:44;24.48;;;15.30;;
12286;SDS011;6206;53.100;11.098;2022-08-19T14:36:11;23.90;;;15.80;;
12286;SDS011;6206;53.100;11.098;2022-08-19T14:38:38;26.35;;;16.30;;
12286;SDS011;6206;53.100;11.098;2022-08-19T14:41:06;24.70;;;16.20;;